createdAt,value
2023-03-06T00:02:07.462Z,5.71
2023-03-06T00:07:09.073Z,5.68
2023-03-06T00:12:10.632Z,5.51
2023-03-06T00:17:12.013Z,5.64
2023-03-06T00:22:15.320Z,5.63
2023-03-06T00:27:16.631Z,5.72
2023-03-06T00:32:18.031Z,5.71
2023-03-06T00:37:20.237Z,5.82
2023-03-06T00:42:21.597Z,5.75
2023-03-06T00:47:23.304Z,5.77
2023-03-06T00:52:24.730Z,5.75
2023-03-06T00:57:26.040Z,5.75
2023-03-06T01:02:27.592Z,5.74
2023-03-06T01:07:29.733Z,5.76
2023-03-06T01:12:31.095Z,5.71
2023-03-06T01:17:32.433Z,5.74
2023-03-06T01:22:33.832Z,5.66
2023-03-06T01:27:35.761Z,5.84
2023-03-06T01:32:37.186Z,5.86
2023-03-06T01:37:39.369Z,5.87
2023-03-06T01:42:41.716Z,5.70
2023-03-06T01:47:44.679Z,5.59
2023-03-06T01:52:53.339Z,5.65
2023-03-06T01:57:57.968Z,5.52
2023-03-06T02:03:01.969Z,5.74
2023-03-06T02:08:05.555Z,5.62
2023-03-06T02:13:07.127Z,5.62
2023-03-06T02:18:08.469Z,5.73
2023-03-06T02:23:22.611Z,5.75
2023-03-06T02:28:25.591Z,5.69
2023-03-06T02:33:29.431Z,5.57
2023-03-06T02:38:40.674Z,5.49
2023-03-06T02:43:45.283Z,5.63
2023-03-06T02:48:46.602Z,5.55
2023-03-06T02:53:47.989Z,5.58
2023-03-06T02:58:49.336Z,5.40
2023-03-06T03:03:50.824Z,5.23
2023-03-06T03:08:52.147Z,5.34
2023-03-06T03:13:53.457Z,5.34
2023-03-06T03:18:54.839Z,5.32
2023-03-06T03:23:56.222Z,5.31
2023-03-06T03:28:57.758Z,5.27
2023-03-06T03:33:59.944Z,5.23
2023-03-06T03:39:01.291Z,5.28
2023-03-06T03:44:02.787Z,5.21
2023-03-06T03:49:05.140Z,5.08
2023-03-06T03:54:06.812Z,5.09
2023-03-06T03:59:08.597Z,5.11
2023-03-06T04:04:09.991Z,5.25
2023-03-06T04:09:11.433Z,5.31
2023-03-06T04:14:12.793Z,5.30
2023-03-06T04:19:14.215Z,5.44
2023-03-06T04:24:19.731Z,5.40
2023-03-06T04:29:21.147Z,5.39
2023-03-06T04:34:22.938Z,5.38
2023-03-06T04:39:24.553Z,5.40
2023-03-06T04:44:25.928Z,5.48
2023-03-06T04:49:27.321Z,5.46
2023-03-06T04:54:29.170Z,5.37
2023-03-06T04:59:30.600Z,5.41
2023-03-06T05:04:31.910Z,5.27
2023-03-06T05:09:34.524Z,5.32
2023-03-06T05:14:35.897Z,5.38
2023-03-06T05:19:37.265Z,5.52
2023-03-06T05:24:38.644Z,5.25
2023-03-06T05:29:40.024Z,5.46
2023-03-06T05:34:41.447Z,5.43
2023-03-06T05:39:42.934Z,5.33
2023-03-06T05:44:44.296Z,5.32
2023-03-06T05:49:45.629Z,5.36
2023-03-06T05:54:50.015Z,5.34
2023-03-06T05:59:51.573Z,5.19
2023-03-06T06:04:52.984Z,5.27
2023-03-06T06:09:54.545Z,5.33
2023-03-06T06:14:56.089Z,5.34
2023-03-06T06:19:57.510Z,5.37
2023-03-06T06:24:58.873Z,5.30
2023-03-06T06:30:00.289Z,5.50
2023-03-06T06:35:01.793Z,5.40
2023-03-06T06:40:04.484Z,5.44
2023-03-06T06:45:07.122Z,5.40
2023-03-06T06:50:12.842Z,5.49
2023-03-06T06:55:14.859Z,5.40
2023-03-06T07:00:17.853Z,5.35
2023-03-06T07:05:20.976Z,5.45
2023-03-06T07:10:23.444Z,5.43
2023-03-06T07:15:27.186Z,5.52
2023-03-06T07:20:28.627Z,5.65
2023-03-06T07:25:30.157Z,5.75
2023-03-06T07:30:31.559Z,5.77
2023-03-06T07:35:33.167Z,5.77
2023-03-06T07:40:35.233Z,5.93
2023-03-06T07:45:36.679Z,5.98
2023-03-06T07:50:39.033Z,5.73
2023-03-06T07:55:41.465Z,5.86
2023-03-06T08:00:42.840Z,5.92
2023-03-06T08:05:45.538Z,6.02
2023-03-06T08:10:48.988Z,6.27
2023-03-06T08:15:50.399Z,6.27
2023-03-06T08:21:01.870Z,6.03
2023-03-06T08:26:06.676Z,6.30
2023-03-06T08:31:12.590Z,6.54
2023-03-06T08:36:14.074Z,6.54
2023-03-06T08:41:16.120Z,6.67
2023-03-06T08:46:18.859Z,6.50
2023-03-06T08:51:21.799Z,6.70
2023-03-06T08:56:34.213Z,6.79
2023-03-06T09:01:37.586Z,6.60
2023-03-06T09:06:41.690Z,6.73
2023-03-06T09:11:43.185Z,6.60
2023-03-06T09:16:44.606Z,6.75
2023-03-06T09:21:45.942Z,6.72
2023-03-06T09:26:49.391Z,6.65
2023-03-06T09:31:51.788Z,6.57
2023-03-06T09:36:57.074Z,6.45
2023-03-06T09:41:59.187Z,6.45
2023-03-06T09:47:31.967Z,6.12
2023-03-06T09:52:36.407Z,6.45
2023-03-06T09:57:52.745Z,6.54
2023-03-06T10:03:05.480Z,6.71
2023-03-06T10:08:20.796Z,6.17
2023-03-06T10:13:36.640Z,6.46
2023-03-06T10:18:39.098Z,6.06
2023-03-06T10:23:52.065Z,6.65
2023-03-06T10:29:20.835Z,7.03
2023-03-06T10:34:24.003Z,7.66
2023-03-06T10:39:25.346Z,8.13
2023-03-06T10:44:26.745Z,8.49
2023-03-06T10:49:28.299Z,8.97
2023-03-06T10:54:34.092Z,9.84
2023-03-06T10:59:50.802Z,11.29
2023-03-06T11:04:53.924Z,14.47
2023-03-06T11:09:58.198Z,13.85
2023-03-06T11:15:12.293Z,17.26
2023-03-06T11:20:50.454Z,20.47
2023-03-06T11:26:20.577Z,17.05
2023-03-06T11:31:25.734Z,14.64
2023-03-06T11:36:42.982Z,14.57
2023-03-06T11:42:15.480Z,13.50
2023-03-06T11:47:22.481Z,12.66
2023-03-06T11:52:30.345Z,12.21
2023-03-06T11:57:42.835Z,17.28
2023-03-06T12:03:12.150Z,16.14
2023-03-06T12:08:26.866Z,17.01
2023-03-06T12:13:49.837Z,13.92
2023-03-06T12:19:23.380Z,12.19
2023-03-06T12:24:45.979Z,13.46
2023-03-06T12:30:22.059Z,11.61
2023-03-06T12:35:47.299Z,10.63
2023-03-06T12:41:26.429Z,10.53
2023-03-06T12:46:30.429Z,14.07
2023-03-06T12:51:33.375Z,13.00
2023-03-06T12:56:35.391Z,11.84
2023-03-06T13:01:56.060Z,11.78
2023-03-06T13:07:10.814Z,15.00
2023-03-06T13:12:28.242Z,18.27
2023-03-06T13:17:35.431Z,13.72
2023-03-06T13:22:36.793Z,11.61
2023-03-06T13:28:00.822Z,10.89
2023-03-06T13:33:47.819Z,10.70
2023-03-06T13:38:49.156Z,17.39
2023-03-06T13:43:53.784Z,15.55
2023-03-06T13:49:13.216Z,12.91
2023-03-06T13:54:36.310Z,11.20
2023-03-06T14:00:09.237Z,10.36
2023-03-06T14:05:16.824Z,9.92
2023-03-06T14:10:24.771Z,9.39
2023-03-06T14:15:31.439Z,9.26
2023-03-06T14:20:43.055Z,9.22
2023-03-06T14:25:46.598Z,8.70
2023-03-06T14:30:50.153Z,9.01
2023-03-06T14:35:53.250Z,8.95
2023-03-06T14:40:56.113Z,8.88
2023-03-06T14:46:00.330Z,9.01
2023-03-06T14:51:02.770Z,9.15
2023-03-06T14:56:06.373Z,9.20
2023-03-06T15:01:10.776Z,9.40
2023-03-06T15:06:31.184Z,9.08
2023-03-06T15:11:54.837Z,9.15
2023-03-06T15:17:14.468Z,8.63
2023-03-06T15:22:41.652Z,8.53
2023-03-06T15:27:50.160Z,8.64
2023-03-06T15:32:52.340Z,8.66
2023-03-06T15:37:54.154Z,8.53
2023-03-06T15:42:56.404Z,8.69
2023-03-06T15:47:57.767Z,8.48
2023-03-06T15:52:59.103Z,8.27
2023-03-06T15:58:04.660Z,8.27
2023-03-06T16:03:06.286Z,8.17
2023-03-06T16:08:09.580Z,7.86
2023-03-06T16:13:23.514Z,7.86
2023-03-06T16:18:24.999Z,7.64
2023-03-06T16:23:27.145Z,7.59
2023-03-06T16:28:28.777Z,7.43
2023-03-06T16:33:30.139Z,7.35
2023-03-06T16:38:31.889Z,7.43
2023-03-06T16:43:33.318Z,7.57
2023-03-06T16:48:34.725Z,7.41
2023-03-06T16:53:36.096Z,7.25
2023-03-06T16:58:37.526Z,7.20
2023-03-06T17:03:39.246Z,6.94
2023-03-06T17:08:40.749Z,6.97
2023-03-06T17:13:42.103Z,7.12
2023-03-06T17:18:44.948Z,7.14
2023-03-06T17:23:46.378Z,7.04
2023-03-06T17:28:47.767Z,6.97
2023-03-06T17:33:51.333Z,6.81
2023-03-06T17:38:57.051Z,6.68
2023-03-06T17:43:58.629Z,6.63
2023-03-06T17:49:00.429Z,6.66
2023-03-06T17:54:01.932Z,6.47
2023-03-06T17:59:04.219Z,6.42
2023-03-06T18:04:05.938Z,6.20
2023-03-06T18:09:07.700Z,6.49
2023-03-06T18:14:09.665Z,6.35
2023-03-06T18:19:11.317Z,6.28
2023-03-06T18:24:13.481Z,6.31
2023-03-06T18:29:14.806Z,6.29
2023-03-06T18:34:17.776Z,6.18
2023-03-06T18:39:21.729Z,6.17
2023-03-06T18:44:23.092Z,6.10
2023-03-06T18:49:24.413Z,6.14
2023-03-06T18:54:28.467Z,6.03
2023-03-06T18:59:29.893Z,5.91
2023-03-06T19:04:31.520Z,5.99
2023-03-06T19:09:33.522Z,5.99
2023-03-06T19:14:36.318Z,5.56
2023-03-06T19:19:37.732Z,5.71
2023-03-06T19:24:39.081Z,5.62
2023-03-06T19:29:40.537Z,5.55
2023-03-06T19:34:42.150Z,5.39
2023-03-06T19:39:44.965Z,5.46
2023-03-06T19:44:46.356Z,5.49
2023-03-06T19:49:48.041Z,5.45
2023-03-06T19:54:49.446Z,5.26
2023-03-06T19:59:51.408Z,5.28
2023-03-06T20:04:55.663Z,5.11
2023-03-06T20:10:00.582Z,5.10
2023-03-06T20:15:02.322Z,5.00
2023-03-06T20:20:03.989Z,4.86
2023-03-06T20:25:05.792Z,5.01
2023-03-06T20:30:08.142Z,4.96
2023-03-06T20:35:09.576Z,4.87
2023-03-06T20:40:11.555Z,4.77
2023-03-06T20:45:13.044Z,4.65
2023-03-06T20:50:15.484Z,4.58
2023-03-06T20:55:16.794Z,4.46
2023-03-06T21:00:19.787Z,4.53
2023-03-06T21:05:21.296Z,4.58
2023-03-06T21:10:22.611Z,4.47
2023-03-06T21:15:27.227Z,4.37
2023-03-06T21:20:28.542Z,4.34
2023-03-06T21:25:30.161Z,4.39
2023-03-06T21:30:31.582Z,4.35
2023-03-06T21:35:37.475Z,4.28
2023-03-06T21:40:39.240Z,3.91
2023-03-06T21:45:48.534Z,4.32
2023-03-06T21:50:49.888Z,4.09
2023-03-06T21:55:51.273Z,4.17
2023-03-06T22:00:52.923Z,4.22
2023-03-06T22:05:54.541Z,4.29
2023-03-06T22:10:55.876Z,4.23
2023-03-06T22:15:57.196Z,4.15
2023-03-06T22:20:58.592Z,4.03
2023-03-06T22:26:07.972Z,3.92
2023-03-06T22:31:15.058Z,4.08
2023-03-06T22:36:16.531Z,4.04
2023-03-06T22:41:18.108Z,4.05
2023-03-06T22:46:19.471Z,4.14
2023-03-06T22:51:20.962Z,4.15
2023-03-06T22:56:22.635Z,4.07
2023-03-06T23:01:27.737Z,3.84
2023-03-06T23:06:31.886Z,4.11
2023-03-06T23:11:34.310Z,4.20
2023-03-06T23:16:35.775Z,4.21
2023-03-06T23:21:37.165Z,4.22
2023-03-06T23:26:40.530Z,4.29
2023-03-06T23:31:42.234Z,4.33
2023-03-06T23:36:43.923Z,4.31
2023-03-06T23:41:45.265Z,4.30
2023-03-06T23:46:46.674Z,4.11
2023-03-06T23:51:48.439Z,4.19
2023-03-06T23:56:49.756Z,4.13
